createdAt,value
2024-02-13T00:00:49.419Z,94350.00
2024-02-13T00:01:49.408Z,94353.00
2024-02-13T00:02:49.693Z,94357.00
2024-02-13T00:03:49.489Z,94356.00
2024-02-13T00:04:49.472Z,94355.00
2024-02-13T00:05:49.600Z,94354.00
2024-02-13T00:06:49.548Z,94358.00
2024-02-13T00:07:49.629Z,94355.00
2024-02-13T00:08:49.688Z,94357.00
2024-02-13T00:09:49.638Z,94357.00
2024-02-13T00:10:49.661Z,94359.00
2024-02-13T00:11:49.719Z,94360.00
2024-02-13T00:12:49.732Z,94363.00
2024-02-13T00:13:49.749Z,94364.00
2024-02-13T00:14:49.938Z,94364.00
2024-02-13T00:15:49.802Z,94367.00
2024-02-13T00:16:49.863Z,94370.00
2024-02-13T00:17:49.987Z,94372.00
2024-02-13T00:18:49.924Z,94374.00
2024-02-13T00:19:49.947Z,94375.00
2024-02-13T00:20:49.998Z,94373.00
2024-02-13T00:21:49.992Z,94378.00
2024-02-13T00:22:50.034Z,94378.00
2024-02-13T00:23:50.078Z,94381.00
2024-02-13T00:24:50.064Z,94386.00
2024-02-13T00:25:50.093Z,94386.00
2024-02-13T00:26:50.206Z,94389.00
2024-02-13T00:27:50.177Z,94388.00
2024-02-13T00:28:50.171Z,94392.00
2024-02-13T00:29:50.270Z,94390.00
2024-02-13T00:30:50.250Z,94391.00
2024-02-13T00:31:50.260Z,94392.00
2024-02-13T00:32:50.372Z,94394.00
2024-02-13T00:33:50.362Z,94396.00
2024-02-13T00:34:50.379Z,94397.00
2024-02-13T00:35:50.457Z,94402.00
2024-02-13T00:36:50.408Z,94403.00
2024-02-13T00:37:50.437Z,94405.00
2024-02-13T00:38:50.500Z,94410.00
2024-02-13T00:39:50.523Z,94411.00
2024-02-13T00:40:50.548Z,94411.00
2024-02-13T00:41:50.587Z,94411.00
2024-02-13T00:42:50.651Z,94411.00
2024-02-13T00:43:50.636Z,94410.00
2024-02-13T00:44:50.977Z,94414.00
2024-02-13T00:45:50.669Z,94413.00
2024-02-13T00:46:50.717Z,94413.00
2024-02-13T00:47:50.860Z,94417.00
2024-02-13T00:48:50.884Z,94416.00
2024-02-13T00:49:50.825Z,94417.00
2024-02-13T00:50:50.884Z,94419.00
2024-02-13T00:51:50.876Z,94420.00
2024-02-13T00:52:50.882Z,94421.00
2024-02-13T00:53:50.993Z,94421.00
2024-02-13T00:54:50.977Z,94424.00
2024-02-13T00:55:51.006Z,94427.00
2024-02-13T00:56:51.081Z,94431.00
2024-02-13T00:57:51.045Z,94432.00
2024-02-13T00:58:51.124Z,94435.00
2024-02-13T00:59:51.197Z,94434.00
2024-02-13T01:00:51.267Z,94437.00
2024-02-13T01:01:51.165Z,94439.00
2024-02-13T01:02:51.255Z,94442.00
2024-02-13T01:03:51.238Z,94444.00
2024-02-13T01:04:51.268Z,94446.00
2024-02-13T01:05:51.336Z,94450.00
2024-02-13T01:06:51.378Z,94449.00
2024-02-13T01:07:51.368Z,94450.00
2024-02-13T01:08:51.412Z,94450.00
2024-02-13T01:09:51.416Z,94450.00
2024-02-13T01:10:51.479Z,94450.00
2024-02-13T01:11:51.611Z,94447.00
2024-02-13T01:12:51.517Z,94446.00
2024-02-13T01:13:51.568Z,94448.00
2024-02-13T01:14:51.668Z,94448.00
2024-02-13T01:15:51.606Z,94451.00
2024-02-13T01:16:51.632Z,94453.00
2024-02-13T01:17:51.703Z,94454.00
2024-02-13T01:18:51.759Z,94457.00
2024-02-13T01:19:51.754Z,94460.00
2024-02-13T01:20:51.884Z,94460.00
2024-02-13T01:21:51.826Z,94463.00
2024-02-13T01:22:51.842Z,94462.00
2024-02-13T01:23:51.992Z,94465.00
2024-02-13T01:24:51.909Z,94467.00
2024-02-13T01:25:51.957Z,94467.00
2024-02-13T01:26:52.009Z,94471.00
2024-02-13T01:27:52.034Z,94473.00
2024-02-13T01:28:52.070Z,94473.00
2024-02-13T01:29:52.175Z,94472.00
2024-02-13T01:30:52.124Z,94475.00
2024-02-13T01:31:52.174Z,94474.00
2024-02-13T01:32:52.194Z,94475.00
2024-02-13T01:33:52.241Z,94481.00
2024-02-13T01:34:52.277Z,94480.00
2024-02-13T01:35:52.313Z,94484.00
2024-02-13T01:36:52.276Z,94484.00
2024-02-13T01:37:52.315Z,94485.00
2024-02-13T01:38:52.484Z,94485.00
2024-02-13T01:39:52.364Z,94486.00
2024-02-13T01:40:52.395Z,94485.00
2024-02-13T01:41:52.469Z,94487.00
2024-02-13T01:42:52.446Z,94487.00
2024-02-13T01:43:52.476Z,94491.00
2024-02-13T01:44:52.542Z,94492.00
2024-02-13T01:45:52.544Z,94493.00
2024-02-13T01:46:52.578Z,94493.00
2024-02-13T01:47:52.670Z,94495.00
2024-02-13T01:48:52.700Z,94497.00
2024-02-13T01:49:52.666Z,94500.00
2024-02-13T01:50:52.745Z,94501.00
2024-02-13T01:51:52.748Z,94501.00
2024-02-13T01:52:52.757Z,94505.00
2024-02-13T01:53:52.864Z,94508.00
2024-02-13T01:54:52.800Z,94508.00
2024-02-13T01:55:52.872Z,94509.00
2024-02-13T01:56:52.900Z,94509.00
2024-02-13T01:57:52.907Z,94512.00
2024-02-13T01:58:52.920Z,94512.00
2024-02-13T01:59:53.002Z,94508.00
2024-02-13T02:00:52.985Z,94510.00
2024-02-13T02:01:53.007Z,94514.00
2024-02-13T02:02:53.056Z,94515.00
2024-02-13T02:03:53.126Z,94518.00
2024-02-13T02:04:56.008Z,94518.00
2024-02-13T02:05:53.137Z,94520.00
2024-02-13T02:06:53.083Z,94523.00
2024-02-13T02:07:53.077Z,94522.00
2024-02-13T02:08:53.164Z,94527.00
2024-02-13T02:09:53.105Z,94528.00
2024-02-13T02:10:53.102Z,94531.00
2024-02-13T02:11:53.182Z,94531.00
2024-02-13T02:12:53.091Z,94533.00
2024-02-13T02:13:53.071Z,94534.00
2024-02-13T02:14:53.157Z,94536.00
2024-02-13T02:15:53.073Z,94537.00
2024-02-13T02:16:53.089Z,94540.00
2024-02-13T02:17:53.297Z,94541.00
2024-02-13T02:18:53.197Z,94543.00
2024-02-13T02:19:53.088Z,94544.00
2024-02-13T02:20:53.264Z,94546.00
2024-02-13T02:21:53.084Z,94545.00
2024-02-13T02:22:53.099Z,94544.00
2024-02-13T02:23:53.133Z,94546.00
2024-02-13T02:24:53.101Z,94547.00
2024-02-13T02:25:53.082Z,94553.00
2024-02-13T02:26:53.134Z,94554.00
2024-02-13T02:27:53.099Z,94554.00
2024-02-13T02:28:53.091Z,94554.00
2024-02-13T02:29:53.183Z,94553.00
2024-02-13T02:30:53.134Z,94555.00
2024-02-13T02:31:53.096Z,94556.00
2024-02-13T02:32:53.176Z,94557.00
2024-02-13T02:33:53.203Z,94557.00
2024-02-13T02:34:53.151Z,94557.00
2024-02-13T02:35:53.193Z,94553.00
2024-02-13T02:36:53.114Z,94554.00
2024-02-13T02:37:53.118Z,94556.00
2024-02-13T02:38:53.190Z,94556.00
2024-02-13T02:39:53.131Z,94556.00
2024-02-13T02:40:53.116Z,94560.00
2024-02-13T02:41:53.163Z,94561.00
2024-02-13T02:42:53.187Z,94565.00
2024-02-13T02:43:53.112Z,94567.00
2024-02-13T02:44:53.166Z,94571.00
2024-02-13T02:45:53.117Z,94570.00
2024-02-13T02:46:53.128Z,94573.00
2024-02-13T02:47:53.185Z,94572.00
2024-02-13T02:48:53.186Z,94574.00
2024-02-13T02:49:53.154Z,94575.00
2024-02-13T02:50:53.175Z,94578.00
2024-02-13T02:51:53.159Z,94578.00
2024-02-13T02:52:53.149Z,94581.00
2024-02-13T02:53:53.157Z,94583.00
2024-02-13T02:54:53.159Z,94584.00
2024-02-13T02:55:53.130Z,94587.00
2024-02-13T02:56:53.180Z,94586.00
2024-02-13T02:57:53.136Z,94590.00
2024-02-13T02:58:53.141Z,94587.00
2024-02-13T02:59:53.207Z,94589.00
2024-02-13T03:00:53.228Z,94589.00
2024-02-13T03:01:53.158Z,94591.00
2024-02-13T03:02:53.276Z,94592.00
2024-02-13T03:03:53.362Z,94593.00
2024-02-13T03:04:53.152Z,94597.00
2024-02-13T03:05:53.636Z,94597.00
2024-02-13T03:06:53.163Z,94596.00
2024-02-13T03:07:53.153Z,94598.00
2024-02-13T03:08:53.259Z,94599.00
2024-02-13T03:09:53.163Z,94598.00
2024-02-13T03:10:53.173Z,94603.00
2024-02-13T03:11:53.299Z,94604.00
2024-02-13T03:12:53.159Z,94603.00
2024-02-13T03:13:53.172Z,94604.00
2024-02-13T03:14:53.217Z,94600.00
2024-02-13T03:15:53.157Z,94600.00
2024-02-13T03:16:53.168Z,94603.00
2024-02-13T03:17:53.265Z,94602.00
2024-02-13T03:18:53.236Z,94607.00
2024-02-13T03:19:53.170Z,94611.00
2024-02-13T03:20:53.287Z,94615.00
2024-02-13T03:21:53.222Z,94616.00
2024-02-13T03:22:53.187Z,94620.00
2024-02-13T03:23:53.288Z,94618.00
2024-02-13T03:24:53.198Z,94618.00
2024-02-13T03:25:53.173Z,94618.00
2024-02-13T03:26:53.191Z,94619.00
2024-02-13T03:27:53.182Z,94624.00
2024-02-13T03:28:53.188Z,94625.00
2024-02-13T03:29:53.209Z,94628.00
2024-02-13T03:30:53.192Z,94628.00
2024-02-13T03:31:53.190Z,94627.00
2024-02-13T03:32:53.433Z,94629.00
2024-02-13T03:33:53.324Z,94631.00
2024-02-13T03:34:53.195Z,94631.00
2024-02-13T03:35:53.210Z,94631.00
2024-02-13T03:36:53.198Z,94634.00
2024-02-13T03:37:53.206Z,94635.00
2024-02-13T03:38:53.233Z,94637.00
2024-02-13T03:39:53.212Z,94638.00
2024-02-13T03:40:53.244Z,94639.00
2024-02-13T03:41:53.301Z,94640.00
2024-02-13T03:42:53.282Z,94644.00
2024-02-13T03:43:53.443Z,94645.00
2024-02-13T03:44:53.390Z,94650.00
2024-02-13T03:45:53.396Z,94651.00
2024-02-13T03:46:53.405Z,94651.00
2024-02-13T03:47:53.500Z,94648.00
2024-02-13T03:48:53.525Z,94650.00
2024-02-13T03:49:53.507Z,94649.00
2024-02-13T03:50:53.567Z,94648.00
2024-02-13T03:51:53.562Z,94650.00
2024-02-13T03:52:53.595Z,94652.00
2024-02-13T03:53:53.632Z,94651.00
2024-02-13T03:54:53.657Z,94656.00
2024-02-13T03:55:53.683Z,94657.00
2024-02-13T03:56:53.744Z,94657.00
2024-02-13T03:57:53.748Z,94662.00
2024-02-13T03:58:53.787Z,94664.00
2024-02-13T03:59:53.835Z,94668.00
2024-02-13T04:00:53.922Z,94667.00
2024-02-13T04:01:53.885Z,94667.00
2024-02-13T04:02:53.904Z,94672.00
2024-02-13T04:03:53.969Z,94671.00
2024-02-13T04:04:53.946Z,94673.00
2024-02-13T04:05:54.057Z,94677.00
2024-02-13T04:06:54.084Z,94680.00
2024-02-13T04:07:54.032Z,94682.00
2024-02-13T04:08:54.089Z,94683.00
2024-02-13T04:09:54.091Z,94684.00
2024-02-13T04:10:54.128Z,94687.00
2024-02-13T04:11:54.181Z,94689.00
2024-02-13T04:12:54.177Z,94689.00
2024-02-13T04:13:54.201Z,94690.00
2024-02-13T04:14:54.265Z,94692.00
2024-02-13T04:15:56.578Z,94694.00
2024-02-13T04:16:54.390Z,94697.00
2024-02-13T04:17:54.476Z,94696.00
2024-02-13T04:18:54.601Z,94695.00
2024-02-13T04:19:54.477Z,94696.00
2024-02-13T04:20:54.591Z,94697.00
2024-02-13T04:21:54.545Z,94702.00
2024-02-13T04:22:54.566Z,94703.00
2024-02-13T04:23:54.691Z,94703.00
2024-02-13T04:24:54.615Z,94702.00
2024-02-13T04:25:54.669Z,94698.00
2024-02-13T04:26:54.696Z,94694.00
2024-02-13T04:27:54.723Z,94695.00
2024-02-13T04:28:54.772Z,94695.00
2024-02-13T04:29:54.907Z,94692.00
2024-02-13T04:30:54.833Z,94695.00
2024-02-13T04:31:54.857Z,94694.00
2024-02-13T04:32:55.055Z,94692.00
2024-02-13T04:33:55.029Z,94696.00
2024-02-13T04:34:54.962Z,94697.00
2024-02-13T04:35:54.959Z,94697.00
2024-02-13T04:36:55.004Z,94697.00
2024-02-13T04:37:55.121Z,94698.00
2024-02-13T04:38:55.086Z,94699.00
2024-02-13T04:39:55.076Z,94701.00
2024-02-13T04:40:55.086Z,94703.00
2024-02-13T04:41:55.157Z,94707.00
2024-02-13T04:42:55.159Z,94710.00
2024-02-13T04:43:55.283Z,94713.00
2024-02-13T04:44:55.241Z,94715.00
2024-02-13T04:45:55.264Z,94717.00
2024-02-13T04:46:55.291Z,94716.00
2024-02-13T04:47:55.520Z,94717.00
2024-02-13T04:48:55.587Z,94720.00
2024-02-13T04:49:55.398Z,94719.00
2024-02-13T04:50:55.454Z,94720.00
2024-02-13T04:51:55.446Z,94721.00
2024-02-13T04:52:55.471Z,94719.00
2024-02-13T04:53:55.537Z,94719.00
2024-02-13T04:55:02.845Z,94716.00
2024-02-13T04:56:02.825Z,94719.00
2024-02-13T04:57:02.825Z,94717.00
2024-02-13T04:58:02.859Z,94717.00
2024-02-13T04:59:02.832Z,94718.00
2024-02-13T05:00:02.865Z,94720.00
2024-02-13T05:01:02.965Z,94719.00
2024-02-13T05:02:02.842Z,94721.00
2024-02-13T05:03:02.840Z,94722.00
2024-02-13T05:04:02.919Z,94722.00
2024-02-13T05:05:02.882Z,94725.00
2024-02-13T05:06:03.031Z,94731.00
2024-02-13T05:07:02.860Z,94731.00
2024-02-13T05:08:02.854Z,94732.00
2024-02-13T05:09:02.843Z,94734.00
2024-02-13T05:10:02.895Z,94733.00
2024-02-13T05:11:02.853Z,94736.00
2024-02-13T05:12:02.882Z,94737.00
2024-02-13T05:13:02.859Z,94735.00
2024-02-13T05:14:02.858Z,94740.00
2024-02-13T05:15:02.886Z,94742.00
2024-02-13T05:16:02.865Z,94741.00
2024-02-13T05:17:02.856Z,94741.00
2024-02-13T05:18:02.939Z,94739.00
2024-02-13T05:19:02.960Z,94740.00
2024-02-13T05:20:02.887Z,94742.00
2024-02-13T05:21:02.890Z,94745.00
2024-02-13T05:22:02.878Z,94748.00
2024-02-13T05:23:02.883Z,94749.00
2024-02-13T05:24:02.902Z,94750.00
2024-02-13T05:25:02.878Z,94751.00
2024-02-13T05:26:02.887Z,94752.00
2024-02-13T05:27:02.927Z,94751.00
2024-02-13T05:28:02.902Z,94750.00
2024-02-13T05:29:02.899Z,94755.00
2024-02-13T05:30:02.893Z,94755.00
2024-02-13T05:31:02.886Z,94754.00
2024-02-13T05:32:02.922Z,94758.00
2024-02-13T05:33:02.964Z,94757.00
2024-02-13T05:34:02.984Z,94758.00
2024-02-13T05:35:02.912Z,94753.00
2024-02-13T05:36:02.949Z,94756.00
2024-02-13T05:37:02.965Z,94757.00
2024-02-13T05:38:02.999Z,94756.00
2024-02-13T05:39:03.012Z,94757.00
2024-02-13T05:40:03.067Z,94762.00
2024-02-13T05:41:03.059Z,94763.00
2024-02-13T05:42:03.113Z,94765.00
2024-02-13T05:43:03.129Z,94764.00
2024-02-13T05:44:03.132Z,94765.00
2024-02-13T05:45:03.177Z,94764.00
2024-02-13T05:46:03.191Z,94767.00
2024-02-13T05:47:03.210Z,94767.00
2024-02-13T05:48:03.380Z,94767.00
2024-02-13T05:49:03.297Z,94770.00
2024-02-13T05:50:03.296Z,94769.00
2024-02-13T05:51:03.315Z,94771.00
2024-02-13T05:52:03.365Z,94771.00
2024-02-13T05:53:03.367Z,94776.00
2024-02-13T05:54:03.483Z,94775.00
2024-02-13T05:55:03.411Z,94776.00
2024-02-13T05:56:03.475Z,94777.00
2024-02-13T05:57:03.572Z,94780.00
2024-02-13T05:58:03.482Z,94776.00
2024-02-13T05:59:03.531Z,94775.00
2024-02-13T06:00:03.622Z,94775.00
2024-02-13T06:01:03.606Z,94774.00
2024-02-13T06:02:03.600Z,94777.00
2024-02-13T06:03:03.660Z,94777.00
2024-02-13T06:04:03.669Z,94782.00
2024-02-13T06:05:03.658Z,94786.00
2024-02-13T06:06:04.042Z,94787.00
2024-02-13T06:07:03.714Z,94787.00
2024-02-13T06:08:03.734Z,94789.00
2024-02-13T06:09:03.838Z,94787.00
2024-02-13T06:10:03.798Z,94789.00
2024-02-13T06:11:03.875Z,94792.00
2024-02-13T06:12:03.847Z,94791.00
2024-02-13T06:13:03.839Z,94791.00
2024-02-13T06:14:03.841Z,94792.00
2024-02-13T06:15:03.949Z,94794.00
2024-02-13T06:16:03.898Z,94795.00
2024-02-13T06:17:03.917Z,94799.00
2024-02-13T06:18:04.058Z,94800.00
2024-02-13T06:19:04.057Z,94802.00
2024-02-13T06:20:04.021Z,94806.00
2024-02-13T06:21:04.064Z,94807.00
2024-02-13T06:22:04.049Z,94808.00
2024-02-13T06:23:04.158Z,94810.00
2024-02-13T06:24:04.149Z,94812.00
2024-02-13T06:25:04.096Z,94811.00
2024-02-13T06:26:04.117Z,94814.00
2024-02-13T06:27:04.278Z,94814.00
2024-02-13T06:28:04.168Z,94815.00
2024-02-13T06:29:04.163Z,94818.00
2024-02-13T06:30:04.252Z,94819.00
2024-02-13T06:31:04.199Z,94820.00
2024-02-13T06:32:04.207Z,94817.00
2024-02-13T06:33:04.388Z,94816.00
2024-02-13T06:34:04.448Z,94817.00
2024-02-13T06:35:04.287Z,94819.00
2024-02-13T06:36:04.366Z,94822.00
2024-02-13T06:37:04.308Z,94826.00
2024-02-13T06:38:04.331Z,94830.00
2024-02-13T06:39:04.486Z,94831.00
2024-02-13T06:40:04.428Z,94836.00
2024-02-13T06:41:04.418Z,94841.00
2024-02-13T06:42:05.829Z,94837.00
2024-02-13T06:43:04.454Z,94837.00
2024-02-13T06:44:04.478Z,94839.00
2024-02-13T06:45:04.536Z,94838.00
2024-02-13T06:46:04.494Z,94842.00
2024-02-13T06:47:04.517Z,94843.00
2024-02-13T06:48:04.651Z,94845.00
2024-02-13T06:49:04.679Z,94847.00
2024-02-13T06:50:04.601Z,94846.00
2024-02-13T06:51:04.628Z,94851.00
2024-02-13T06:52:04.623Z,94851.00
2024-02-13T06:53:04.638Z,94852.00
2024-02-13T06:54:04.735Z,94852.00
2024-02-13T06:55:04.694Z,94852.00
2024-02-13T06:56:04.746Z,94852.00
2024-02-13T06:57:04.726Z,94852.00
2024-02-13T06:58:04.709Z,94853.00
2024-02-13T06:59:04.732Z,94853.00
2024-02-13T07:00:05.936Z,94853.00
2024-02-13T07:01:04.775Z,94854.00
2024-02-13T07:02:04.778Z,94855.00
2024-02-13T07:03:04.808Z,94856.00
2024-02-13T07:04:04.883Z,94857.00
2024-02-13T07:05:04.877Z,94858.00
2024-02-13T07:06:04.930Z,94856.00
2024-02-13T07:07:14.580Z,94856.00
2024-02-13T07:08:05.947Z,94855.00
2024-02-13T07:09:04.935Z,94856.00
2024-02-13T07:10:04.939Z,94857.00
2024-02-13T07:11:04.949Z,94860.00
2024-02-13T07:12:04.878Z,94857.00
2024-02-13T07:13:04.905Z,94860.00
2024-02-13T07:14:04.865Z,94860.00
2024-02-13T07:15:04.978Z,94859.00
2024-02-13T07:16:04.892Z,94860.00
2024-02-13T07:17:04.873Z,94861.00
2024-02-13T07:18:05.094Z,94858.00
2024-02-13T07:19:05.084Z,94860.00
2024-02-13T07:20:04.981Z,94859.00
2024-02-13T07:21:07.938Z,94862.00
2024-02-13T07:22:04.889Z,94864.00
2024-02-13T07:23:04.989Z,94865.00
2024-02-13T07:24:04.890Z,94865.00
2024-02-13T07:25:04.894Z,94867.00
2024-02-13T07:26:04.908Z,94868.00
2024-02-13T07:27:04.923Z,94872.00
2024-02-13T07:28:04.907Z,94873.00
2024-02-13T07:29:04.900Z,94872.00
2024-02-13T07:30:04.937Z,94873.00
2024-02-13T07:31:04.926Z,94873.00
2024-02-13T07:32:04.912Z,94871.00
2024-02-13T07:33:05.015Z,94875.00
2024-02-13T07:34:05.003Z,94874.00
2024-02-13T07:35:04.912Z,94876.00
2024-02-13T07:36:05.029Z,94878.00
2024-02-13T07:37:04.974Z,94877.00
2024-02-13T07:38:04.908Z,94878.00
2024-02-13T07:39:04.920Z,94879.00
2024-02-13T07:40:04.934Z,94879.00
2024-02-13T07:41:04.923Z,94881.00
2024-02-13T07:42:04.923Z,94883.00
2024-02-13T07:43:04.925Z,94885.00
2024-02-13T07:44:04.928Z,94886.00
2024-02-13T07:45:04.930Z,94887.00
2024-02-13T07:46:04.951Z,94887.00
2024-02-13T07:47:04.968Z,94889.00
2024-02-13T07:48:05.019Z,94890.00
2024-02-13T07:49:05.013Z,94889.00
2024-02-13T07:50:04.965Z,94892.00
2024-02-13T07:51:04.958Z,94892.00
2024-02-13T07:52:04.955Z,94893.00
2024-02-13T07:53:04.930Z,94896.00
2024-02-13T07:54:04.947Z,94898.00
2024-02-13T07:55:04.946Z,94896.00
2024-02-13T07:56:04.933Z,94898.00
2024-02-13T07:57:04.946Z,94898.00
2024-02-13T07:58:04.961Z,94900.00
2024-02-13T07:59:04.950Z,94900.00
2024-02-13T08:00:05.127Z,94902.00
2024-02-13T08:01:04.980Z,94901.00
2024-02-13T08:02:04.948Z,94902.00
2024-02-13T08:03:04.985Z,94903.00
2024-02-13T08:04:04.972Z,94905.00
2024-02-13T08:05:04.969Z,94904.00
2024-02-13T08:06:05.049Z,94905.00
2024-02-13T08:07:04.940Z,94905.00
2024-02-13T08:08:05.716Z,94904.00
2024-02-13T08:09:04.947Z,94908.00
2024-02-13T08:10:04.964Z,94910.00
2024-02-13T08:11:04.957Z,94913.00
2024-02-13T08:12:04.982Z,94912.00
2024-02-13T08:13:04.986Z,94913.00
2024-02-13T08:14:04.961Z,94916.00
2024-02-13T08:15:05.013Z,94916.00
2024-02-13T08:16:04.975Z,94917.00
2024-02-13T08:17:04.965Z,94921.00
2024-02-13T08:18:05.043Z,94920.00
2024-02-13T08:19:05.022Z,94922.00
2024-02-13T08:20:05.030Z,94922.00
2024-02-13T08:21:05.086Z,94922.00
2024-02-13T08:22:05.002Z,94924.00
2024-02-13T08:23:04.981Z,94925.00
2024-02-13T08:24:04.977Z,94924.00
2024-02-13T08:25:05.022Z,94924.00
2024-02-13T08:26:04.974Z,94925.00
2024-02-13T08:27:04.982Z,94924.00
2024-02-13T08:28:05.014Z,94923.00
2024-02-13T08:29:04.982Z,94926.00
2024-02-13T08:30:05.026Z,94922.00
2024-02-13T08:31:04.983Z,94926.00
2024-02-13T08:32:05.271Z,94927.00
2024-02-13T08:33:05.263Z,94928.00
2024-02-13T08:34:05.150Z,94926.00
2024-02-13T08:35:05.097Z,94928.00
2024-02-13T08:36:05.045Z,94925.00
2024-02-13T08:37:05.005Z,94925.00
2024-02-13T08:38:05.025Z,94925.00
2024-02-13T08:39:04.997Z,94924.00
2024-02-13T08:40:05.015Z,94926.00
2024-02-13T08:41:05.002Z,94928.00
2024-02-13T08:42:05.024Z,94923.00
2024-02-13T08:43:05.029Z,94925.00
2024-02-13T08:44:05.012Z,94925.00
2024-02-13T08:45:05.035Z,94924.00
2024-02-13T08:46:05.049Z,94929.00
2024-02-13T08:47:05.032Z,94929.00
2024-02-13T08:48:05.106Z,94931.00
2024-02-13T08:49:05.177Z,94930.00
2024-02-13T08:50:05.116Z,94931.00
2024-02-13T08:51:05.084Z,94932.00
2024-02-13T08:52:05.045Z,94932.00
2024-02-13T08:53:05.040Z,94934.00
2024-02-13T08:54:05.124Z,94935.00
2024-02-13T08:55:05.078Z,94933.00
2024-02-13T08:56:05.046Z,94932.00
2024-02-13T08:57:05.090Z,94932.00
2024-02-13T08:58:05.062Z,94935.00
2024-02-13T08:59:05.066Z,94934.00
2024-02-13T09:00:05.135Z,94933.00
2024-02-13T09:01:05.073Z,94935.00
2024-02-13T09:02:05.064Z,94932.00
2024-02-13T09:03:05.132Z,94935.00
2024-02-13T09:04:05.120Z,94933.00
2024-02-13T09:05:05.337Z,94930.00
2024-02-13T09:06:05.141Z,94933.00
2024-02-13T09:07:05.059Z,94932.00
2024-02-13T09:08:05.068Z,94933.00
2024-02-13T09:09:05.158Z,94932.00
2024-02-13T09:10:05.109Z,94931.00
2024-02-13T09:11:05.123Z,94930.00
2024-02-13T09:12:05.155Z,94932.00
2024-02-13T09:13:05.118Z,94930.00
2024-02-13T09:14:05.067Z,94931.00
2024-02-13T09:15:05.163Z,94932.00
2024-02-13T09:16:05.103Z,94931.00
2024-02-13T09:17:05.078Z,94932.00
2024-02-13T09:18:05.281Z,94929.00
2024-02-13T09:19:05.246Z,94929.00
2024-02-13T09:20:05.083Z,94930.00
2024-02-13T09:21:05.098Z,94933.00
2024-02-13T09:22:05.089Z,94934.00
2024-02-13T09:23:05.074Z,94933.00
2024-02-13T09:24:05.124Z,94933.00
2024-02-13T09:25:05.080Z,94933.00
2024-02-13T09:26:05.214Z,94933.00
2024-02-13T09:27:05.146Z,94932.00
2024-02-13T09:28:05.092Z,94931.00
2024-02-13T09:29:05.082Z,94930.00
2024-02-13T09:30:05.113Z,94933.00
2024-02-13T09:31:05.118Z,94933.00
2024-02-13T09:32:05.082Z,94935.00
2024-02-13T09:33:05.182Z,94934.00
2024-02-13T09:34:05.187Z,94935.00
2024-02-13T09:35:05.089Z,94936.00
2024-02-13T09:36:05.154Z,94935.00
2024-02-13T09:37:05.098Z,94938.00
2024-02-13T09:38:05.107Z,94937.00
2024-02-13T09:39:05.180Z,94939.00
2024-02-13T09:40:05.100Z,94939.00
2024-02-13T09:41:05.114Z,94940.00
2024-02-13T09:42:05.148Z,94938.00
2024-02-13T09:43:05.108Z,94938.00
2024-02-13T09:44:05.147Z,94936.00
2024-02-13T09:45:05.171Z,94933.00
2024-02-13T09:46:05.105Z,94934.00
2024-02-13T09:47:05.128Z,94936.00
2024-02-13T09:48:05.365Z,94938.00
2024-02-13T09:49:05.228Z,94935.00
2024-02-13T09:50:05.249Z,94935.00
2024-02-13T09:51:05.195Z,94936.00
2024-02-13T09:52:05.195Z,94938.00
2024-02-13T09:53:05.321Z,94936.00
2024-02-13T09:54:05.376Z,94936.00
2024-02-13T09:55:05.290Z,94938.00
2024-02-13T09:56:05.324Z,94938.00
2024-02-13T09:57:05.408Z,94939.00
2024-02-13T09:58:05.371Z,94940.00
2024-02-13T09:59:05.382Z,94942.00
2024-02-13T10:00:05.425Z,94940.00
2024-02-13T10:01:05.470Z,94940.00
2024-02-13T10:02:05.480Z,94940.00
2024-02-13T10:03:05.755Z,94939.00
2024-02-13T10:04:05.674Z,94942.00
2024-02-13T10:05:05.650Z,94939.00
2024-02-13T10:06:05.791Z,94942.00
2024-02-13T10:07:05.910Z,94941.00
2024-02-13T10:08:05.804Z,94941.00
2024-02-13T10:09:05.901Z,94942.00
2024-02-13T10:10:05.876Z,94942.00
2024-02-13T10:11:05.933Z,94943.00
2024-02-13T10:12:06.052Z,94942.00
2024-02-13T10:13:06.010Z,94941.00
2024-02-13T10:14:06.069Z,94942.00
2024-02-13T10:15:06.124Z,94942.00
2024-02-13T10:16:06.138Z,94941.00
2024-02-13T10:17:06.177Z,94938.00
2024-02-13T10:18:06.291Z,94938.00
2024-02-13T10:19:06.417Z,94940.00
2024-02-13T10:20:06.437Z,94939.00
2024-02-13T10:21:06.424Z,94937.00
2024-02-13T10:22:06.403Z,94935.00
2024-02-13T10:23:06.521Z,94936.00
2024-02-13T10:24:06.525Z,94934.00
2024-02-13T10:25:06.536Z,94935.00
2024-02-13T10:26:06.573Z,94933.00
2024-02-13T10:27:06.751Z,94933.00
2024-02-13T10:28:06.650Z,94933.00
2024-02-13T10:29:06.718Z,94932.00
2024-02-13T10:30:06.783Z,94932.00
2024-02-13T10:31:06.777Z,94933.00
2024-02-13T10:32:06.833Z,94931.00
2024-02-13T10:33:06.985Z,94927.00
2024-02-13T10:34:06.950Z,94929.00
2024-02-13T10:35:07.087Z,94927.00
2024-02-13T10:36:07.084Z,94925.00
2024-02-13T10:37:07.084Z,94927.00
2024-02-13T10:38:07.152Z,94926.00
2024-02-13T10:39:07.252Z,94926.00
2024-02-13T10:40:07.266Z,94926.00
2024-02-13T10:41:07.322Z,94921.00
2024-02-13T10:42:07.411Z,94921.00
2024-02-13T10:43:07.438Z,94920.00
2024-02-13T10:44:07.495Z,94916.00
2024-02-13T10:45:07.605Z,94916.00
2024-02-13T10:46:07.633Z,94913.00
2024-02-13T10:47:07.710Z,94911.00
2024-02-13T10:48:07.980Z,94912.00
2024-02-13T10:49:07.912Z,94911.00
2024-02-13T10:50:07.992Z,94911.00
2024-02-13T10:51:08.085Z,94911.00
2024-02-13T10:52:08.046Z,94910.00
2024-02-13T10:53:08.118Z,94909.00
2024-02-13T10:54:08.260Z,94908.00
2024-02-13T10:55:08.235Z,94910.00
2024-02-13T10:56:08.287Z,94905.00
2024-02-13T10:57:08.477Z,94906.00
2024-02-13T10:58:17.158Z,94904.00
2024-02-13T10:59:09.415Z,94904.00
2024-02-13T11:00:08.470Z,94906.00
2024-02-13T11:01:08.627Z,94905.00
2024-02-13T11:02:08.461Z,94902.00
2024-02-13T11:03:08.466Z,94905.00
2024-02-13T11:04:08.429Z,94903.00
2024-02-13T11:05:08.463Z,94903.00
2024-02-13T11:06:08.673Z,94902.00
2024-02-13T11:07:08.548Z,94903.00
2024-02-13T11:08:08.517Z,94903.00
2024-02-13T11:09:08.601Z,94900.00
2024-02-13T11:10:08.659Z,94900.00
2024-02-13T11:11:08.730Z,94899.00
2024-02-13T11:12:08.861Z,94902.00
2024-02-13T11:13:08.829Z,94902.00
2024-02-13T11:14:08.931Z,94902.00
2024-02-13T11:15:09.138Z,94903.00
2024-02-13T11:16:09.053Z,94904.00
2024-02-13T11:17:09.111Z,94905.00
2024-02-13T11:18:09.344Z,94905.00
2024-02-13T11:19:09.291Z,94907.00
2024-02-13T11:20:09.363Z,94904.00
2024-02-13T11:21:09.438Z,94903.00
2024-02-13T11:22:09.469Z,94902.00
2024-02-13T11:23:09.539Z,94901.00
2024-02-13T11:24:09.686Z,94900.00
2024-02-13T11:25:09.906Z,94900.00
2024-02-13T11:26:09.868Z,94896.00
2024-02-13T11:27:20.436Z,94894.00
2024-02-13T11:28:10.841Z,94894.00
2024-02-13T11:29:09.853Z,94895.00
2024-02-13T11:30:09.905Z,94894.00
2024-02-13T11:31:09.824Z,94893.00
2024-02-13T11:32:09.834Z,94892.00
2024-02-13T11:33:10.158Z,94889.00
2024-02-13T11:34:10.388Z,94891.00
2024-02-13T11:35:09.936Z,94887.00
2024-02-13T11:36:09.959Z,94887.00
2024-02-13T11:37:10.027Z,94885.00
2024-02-13T11:38:10.049Z,94886.00
2024-02-13T11:39:10.134Z,94886.00
2024-02-13T11:40:10.176Z,94885.00
2024-02-13T11:41:10.253Z,94886.00
2024-02-13T11:42:10.312Z,94884.00
2024-02-13T11:43:10.385Z,94886.00
2024-02-13T11:44:11.018Z,94884.00
2024-02-13T11:45:10.543Z,94880.00